sensor_id;sensor_type;location;lat;lon;timestamp;P1;durP1;ratioP1;P2;durP2;ratioP2
79640;SDS011;69115;49.904;14.390;2023-07-29T08:10:09;2.33;;;1.60;;
79640;SDS011;69115;49.904;14.390;2023-07-29T08:31:55;2.20;;;1.50;;
79640;SDS011;69115;49.904;14.390;2023-07-29T08:34:20;1.65;;;1.27;;
79640;SDS011;69115;49.904;14.390;2023-07-29T08:36:46;2.70;;;1.65;;
79640;SDS011;69115;49.904;14.390;2023-07-29T08:42:33;2.90;;;1.40;;
79640;SDS011;69115;49.904;14.390;2023-07-29T08:45:06;1.95;;;1.40;;
79640;SDS011;69115;49.904;14.390;2023-07-29T08:47:33;2.13;;;1.40;;
79640;SDS011;69115;49.904;14.390;2023-07-29T08:49:58;2.00;;;1.50;;
79640;SDS011;69115;49.904;14.390;2023-07-29T08:52:24;2.92;;;1.90;;
79640;SDS011;69115;49.904;14.390;2023-07-29T08:54:51;2.15;;;1.67;;
79640;SDS011;69115;49.904;14.390;2023-07-29T08:57:17;4.75;;;1.80;;
79640;SDS011;69115;49.904;14.390;2023-07-29T08:59:45;1.75;;;1.33;;
79640;SDS011;69115;49.904;14.390;2023-07-29T09:02:11;2.15;;;1.60;;
79640;SDS011;69115;49.904;14.390;2023-07-29T09:07:58;3.85;;;1.70;;
79640;SDS011;69115;49.904;14.390;2023-07-29T09:10:25;2.53;;;1.52;;
79640;SDS011;69115;49.904;14.390;2023-07-29T09:28:53;2.25;;;1.70;;
79640;SDS011;69115;49.904;14.390;2023-07-29T09:31:20;1.80;;;1.40;;
79640;SDS011;69115;49.904;14.390;2023-07-29T09:33:46;7.85;;;1.85;;
79640;SDS011;69115;49.904;14.390;2023-07-29T09:36:12;2.03;;;1.50;;
79640;SDS011;69115;49.904;14.390;2023-07-29T09:38:37;1.85;;;1.45;;
79640;SDS011;69115;49.904;14.390;2023-07-29T09:41:03;2.10;;;1.70;;
79640;SDS011;69115;49.904;14.390;2023-07-29T09:43:29;2.20;;;1.60;;
79640;SDS011;69115;49.904;14.390;2023-07-29T09:45:59;1.80;;;1.50;;
79640;SDS011;69115;49.904;14.390;2023-07-29T09:48:26;2.85;;;1.65;;
79640;SDS011;69115;49.904;14.390;2023-07-29T09:50:51;2.35;;;1.58;;
79640;SDS011;69115;49.904;14.390;2023-07-29T09:53:18;2.47;;;1.50;;
79640;SDS011;69115;49.904;14.390;2023-07-29T09:55:47;2.58;;;1.70;;
79640;SDS011;69115;49.904;14.390;2023-07-29T09:58:19;3.00;;;1.65;;
79640;SDS011;69115;49.904;14.390;2023-07-29T10:00:46;2.20;;;1.50;;
79640;SDS011;69115;49.904;14.390;2023-07-29T10:03:12;2.50;;;1.42;;
79640;SDS011;69115;49.904;14.390;2023-07-29T10:05:39;2.60;;;1.60;;
79640;SDS011;69115;49.904;14.390;2023-07-29T10:08:05;2.30;;;1.50;;
79640;SDS011;69115;49.904;14.390;2023-07-29T10:10:30;2.30;;;1.40;;
79640;SDS011;69115;49.904;14.390;2023-07-29T10:12:56;3.20;;;1.58;;
79640;SDS011;69115;49.904;14.390;2023-07-29T10:21:08;2.10;;;1.60;;
79640;SDS011;69115;49.904;14.390;2023-07-29T10:23:37;1.70;;;1.45;;
79640;SDS011;69115;49.904;14.390;2023-07-29T10:26:09;2.15;;;1.40;;
79640;SDS011;69115;49.904;14.390;2023-07-29T10:28:37;4.00;;;1.50;;
79640;SDS011;69115;49.904;14.390;2023-07-29T10:31:05;2.95;;;2.03;;
79640;SDS011;69115;49.904;14.390;2023-07-29T10:33:31;3.40;;;1.50;;
79640;SDS011;69115;49.904;14.390;2023-07-29T10:39:20;3.22;;;1.77;;
79640;SDS011;69115;49.904;14.390;2023-07-29T10:42:01;2.05;;;1.50;;
79640;SDS011;69115;49.904;14.390;2023-07-29T10:49:41;2.33;;;1.52;;
79640;SDS011;69115;49.904;14.390;2023-07-29T10:52:06;2.60;;;1.52;;
79640;SDS011;69115;49.904;14.390;2023-07-29T10:54:45;2.17;;;1.50;;
79640;SDS011;69115;49.904;14.390;2023-07-29T10:57:15;2.53;;;1.70;;
79640;SDS011;69115;49.904;14.390;2023-07-29T10:59:56;2.40;;;1.80;;
79640;SDS011;69115;49.904;14.390;2023-07-29T11:08:58;2.55;;;1.73;;
79640;SDS011;69115;49.904;14.390;2023-07-29T11:11:24;1.85;;;1.48;;
79640;SDS011;69115;49.904;14.390;2023-07-29T11:23:35;10.63;;;1.77;;
79640;SDS011;69115;49.904;14.390;2023-07-29T11:29:27;4.80;;;1.63;;
79640;SDS011;69115;49.904;14.390;2023-07-29T17:00:37;4.30;;;2.10;;
79640;SDS011;69115;49.904;14.390;2023-07-29T17:18:03;3.03;;;2.10;;
79640;SDS011;69115;49.904;14.390;2023-07-29T17:20:28;4.25;;;2.10;;
79640;SDS011;69115;49.904;14.390;2023-07-29T17:22:54;3.40;;;2.05;;
79640;SDS011;69115;49.904;14.390;2023-07-29T17:25:19;3.90;;;2.08;;
79640;SDS011;69115;49.904;14.390;2023-07-29T17:27:45;3.50;;;2.03;;
79640;SDS011;69115;49.904;14.390;2023-07-29T17:30:11;4.47;;;2.05;;
79640;SDS011;69115;49.904;14.390;2023-07-29T17:32:37;4.07;;;2.42;;
79640;SDS011;69115;49.904;14.390;2023-07-29T17:35:02;6.43;;;2.22;;
79640;SDS011;69115;49.904;14.390;2023-07-29T17:37:28;4.97;;;2.13;;
79640;SDS011;69115;49.904;14.390;2023-07-29T17:39:54;3.28;;;2.33;;
79640;SDS011;69115;49.904;14.390;2023-07-29T17:42:19;3.30;;;2.33;;
79640;SDS011;69115;49.904;14.390;2023-07-29T17:44:45;3.22;;;2.33;;
79640;SDS011;69115;49.904;14.390;2023-07-29T17:50:48;3.67;;;2.30;;
79640;SDS011;69115;49.904;14.390;2023-07-29T17:53:14;6.88;;;2.63;;
79640;SDS011;69115;49.904;14.390;2023-07-29T17:55:39;3.70;;;2.50;;
79640;SDS011;69115;49.904;14.390;2023-07-29T17:58:05;4.05;;;2.10;;
79640;SDS011;69115;49.904;14.390;2023-07-29T18:04:02;3.45;;;2.30;;
79640;SDS011;69115;49.904;14.390;2023-07-29T18:06:28;4.20;;;2.50;;
79640;SDS011;69115;49.904;14.390;2023-07-29T18:08:53;4.63;;;2.20;;
79640;SDS011;69115;49.904;14.390;2023-07-29T18:11:19;3.25;;;2.35;;
79640;SDS011;69115;49.904;14.390;2023-07-29T18:13:44;3.45;;;2.10;;
79640;SDS011;69115;49.904;14.390;2023-07-29T18:16:10;3.92;;;2.50;;
79640;SDS011;69115;49.904;14.390;2023-07-29T18:22:13;5.57;;;2.17;;
79640;SDS011;69115;49.904;14.390;2023-07-29T18:24:39;3.92;;;2.08;;
79640;SDS011;69115;49.904;14.390;2023-07-29T18:27:04;3.00;;;2.03;;
79640;SDS011;69115;49.904;14.390;2023-07-29T18:29:31;3.72;;;2.22;;
79640;SDS011;69115;49.904;14.390;2023-07-29T18:31:57;3.80;;;2.40;;
79640;SDS011;69115;49.904;14.390;2023-07-29T18:34:26;3.25;;;2.20;;
79640;SDS011;69115;49.904;14.390;2023-07-29T18:36:52;4.18;;;2.00;;
79640;SDS011;69115;49.904;14.390;2023-07-29T18:39:34;3.65;;;2.10;;
79640;SDS011;69115;49.904;14.390;2023-07-29T18:42:00;2.78;;;1.80;;
79640;SDS011;69115;49.904;14.390;2023-07-29T18:44:26;3.20;;;2.13;;
79640;SDS011;69115;49.904;14.390;2023-07-29T18:46:51;2.72;;;1.90;;
79640;SDS011;69115;49.904;14.390;2023-07-29T18:49:17;3.25;;;2.20;;
79640;SDS011;69115;49.904;14.390;2023-07-29T18:51:42;2.50;;;1.83;;
79640;SDS011;69115;49.904;14.390;2023-07-29T18:54:08;3.15;;;1.70;;
79640;SDS011;69115;49.904;14.390;2023-07-29T18:56:34;3.72;;;2.00;;
79640;SDS011;69115;49.904;14.390;2023-07-29T18:58:59;3.30;;;2.15;;
79640;SDS011;69115;49.904;14.390;2023-07-29T19:01:25;4.63;;;2.40;;
79640;SDS011;69115;49.904;14.390;2023-07-29T19:03:50;2.97;;;2.10;;
79640;SDS011;69115;49.904;14.390;2023-07-29T19:06:16;4.22;;;2.10;;
79640;SDS011;69115;49.904;14.390;2023-07-29T19:08:42;3.35;;;2.10;;
79640;SDS011;69115;49.904;14.390;2023-07-29T19:11:09;3.65;;;2.17;;
79640;SDS011;69115;49.904;14.390;2023-07-29T19:13:35;5.00;;;2.28;;
79640;SDS011;69115;49.904;14.390;2023-07-29T19:16:00;4.55;;;2.30;;
79640;SDS011;69115;49.904;14.390;2023-07-29T19:18:31;4.55;;;2.30;;
79640;SDS011;69115;49.904;14.390;2023-07-29T19:20:57;3.05;;;2.00;;
79640;SDS011;69115;49.904;14.390;2023-07-29T19:23:23;3.50;;;1.88;;
79640;SDS011;69115;49.904;14.390;2023-07-29T19:25:48;4.50;;;2.22;;
79640;SDS011;69115;49.904;14.390;2023-07-29T19:28:14;2.85;;;1.95;;
79640;SDS011;69115;49.904;14.390;2023-07-29T19:30:40;4.65;;;2.33;;
79640;SDS011;69115;49.904;14.390;2023-07-29T19:33:05;3.40;;;2.10;;
79640;SDS011;69115;49.904;14.390;2023-07-29T19:35:31;3.83;;;1.95;;
79640;SDS011;69115;49.904;14.390;2023-07-29T19:37:57;2.70;;;2.00;;
79640;SDS011;69115;49.904;14.390;2023-07-29T19:40:22;3.13;;;2.00;;
79640;SDS011;69115;49.904;14.390;2023-07-29T19:42:51;3.78;;;1.90;;
79640;SDS011;69115;49.904;14.390;2023-07-29T19:45:18;2.92;;;2.00;;
79640;SDS011;69115;49.904;14.390;2023-07-29T19:47:44;4.82;;;2.22;;
79640;SDS011;69115;49.904;14.390;2023-07-29T19:50:10;3.22;;;2.20;;
79640;SDS011;69115;49.904;14.390;2023-07-29T19:52:35;5.03;;;2.53;;
79640;SDS011;69115;49.904;14.390;2023-07-29T19:55:01;3.55;;;2.50;;
79640;SDS011;69115;49.904;14.390;2023-07-29T19:57:27;4.13;;;1.98;;
79640;SDS011;69115;49.904;14.390;2023-07-29T19:59:53;3.88;;;2.38;;
79640;SDS011;69115;49.904;14.390;2023-07-29T20:02:18;4.70;;;2.38;;
79640;SDS011;69115;49.904;14.390;2023-07-29T20:04:53;4.43;;;2.38;;
79640;SDS011;69115;49.904;14.390;2023-07-29T20:07:21;3.40;;;2.20;;
79640;SDS011;69115;49.904;14.390;2023-07-29T20:12:36;6.70;;;2.83;;
79640;SDS011;69115;49.904;14.390;2023-07-29T20:15:02;6.35;;;3.15;;
79640;SDS011;69115;49.904;14.390;2023-07-29T20:17:28;5.03;;;2.83;;
79640;SDS011;69115;49.904;14.390;2023-07-29T20:23:15;4.50;;;2.70;;
79640;SDS011;69115;49.904;14.390;2023-07-29T20:25:41;4.32;;;2.63;;
79640;SDS011;69115;49.904;14.390;2023-07-29T20:28:07;5.03;;;2.97;;
79640;SDS011;69115;49.904;14.390;2023-07-29T20:33:21;6.05;;;3.10;;
79640;SDS011;69115;49.904;14.390;2023-07-29T20:35:57;6.57;;;3.13;;
79640;SDS011;69115;49.904;14.390;2023-07-29T20:41:45;5.10;;;3.38;;
79640;SDS011;69115;49.904;14.390;2023-07-29T20:44:11;6.57;;;3.55;;
79640;SDS011;69115;49.904;14.390;2023-07-29T20:46:37;7.93;;;3.35;;
79640;SDS011;69115;49.904;14.390;2023-07-29T20:49:05;7.22;;;3.65;;
79640;SDS011;69115;49.904;14.390;2023-07-29T20:51:31;5.75;;;3.13;;
79640;SDS011;69115;49.904;14.390;2023-07-29T20:53:56;6.25;;;2.78;;
79640;SDS011;69115;49.904;14.390;2023-07-29T20:56:22;4.47;;;2.60;;
79640;SDS011;69115;49.904;14.390;2023-07-29T20:58:47;5.28;;;2.90;;
79640;SDS011;69115;49.904;14.390;2023-07-29T21:01:13;4.80;;;2.78;;
79640;SDS011;69115;49.904;14.390;2023-07-29T21:03:38;5.45;;;2.88;;
79640;SDS011;69115;49.904;14.390;2023-07-29T21:09:25;4.68;;;3.03;;
79640;SDS011;69115;49.904;14.390;2023-07-29T21:11:51;6.70;;;3.10;;
79640;SDS011;69115;49.904;14.390;2023-07-29T21:14:19;5.82;;;3.22;;
79640;SDS011;69115;49.904;14.390;2023-07-29T21:16:45;3.92;;;2.60;;
79640;SDS011;69115;49.904;14.390;2023-07-29T21:19:10;5.00;;;3.10;;
79640;SDS011;69115;49.904;14.390;2023-07-29T21:21:36;5.68;;;2.80;;
79640;SDS011;69115;49.904;14.390;2023-07-29T21:24:01;4.65;;;3.20;;
79640;SDS011;69115;49.904;14.390;2023-07-29T21:26:27;4.43;;;2.85;;
79640;SDS011;69115;49.904;14.390;2023-07-29T21:28:52;4.07;;;2.80;;
79640;SDS011;69115;49.904;14.390;2023-07-29T21:31:17;7.85;;;3.20;;
79640;SDS011;69115;49.904;14.390;2023-07-29T21:33:43;4.28;;;2.67;;
79640;SDS011;69115;49.904;14.390;2023-07-29T21:36:08;5.82;;;3.25;;
79640;SDS011;69115;49.904;14.390;2023-07-29T21:38:34;4.22;;;2.85;;
79640;SDS011;69115;49.904;14.390;2023-07-29T21:40:59;5.65;;;2.97;;
79640;SDS011;69115;49.904;14.390;2023-07-29T21:56:24;16.10;;;8.05;;
79640;SDS011;69115;49.904;14.390;2023-07-29T22:04:36;13.70;;;7.50;;
79640;SDS011;69115;49.904;14.390;2023-07-29T22:07:15;11.75;;;6.35;;
79640;SDS011;69115;49.904;14.390;2023-07-29T22:09:41;11.27;;;4.95;;
79640;SDS011;69115;49.904;14.390;2023-07-29T22:12:06;7.28;;;4.55;;
79640;SDS011;69115;49.904;14.390;2023-07-29T22:14:42;6.75;;;4.15;;
79640;SDS011;69115;49.904;14.390;2023-07-29T22:19:35;7.07;;;3.97;;
79640;SDS011;69115;49.904;14.390;2023-07-29T22:22:01;8.48;;;3.92;;
79640;SDS011;69115;49.904;14.390;2023-07-29T22:24:27;6.45;;;3.78;;
79640;SDS011;69115;49.904;14.390;2023-07-29T22:26:52;6.72;;;3.53;;
79640;SDS011;69115;49.904;14.390;2023-07-29T22:29:18;5.97;;;3.55;;
79640;SDS011;69115;49.904;14.390;2023-07-29T22:31:44;6.45;;;3.60;;
79640;SDS011;69115;49.904;14.390;2023-07-29T22:34:10;7.82;;;4.07;;
79640;SDS011;69115;49.904;14.390;2023-07-29T22:36:35;5.00;;;3.50;;
79640;SDS011;69115;49.904;14.390;2023-07-29T22:39:01;5.97;;;3.95;;
79640;SDS011;69115;49.904;14.390;2023-07-29T22:41:26;8.50;;;4.05;;
79640;SDS011;69115;49.904;14.390;2023-07-29T22:43:52;9.15;;;3.97;;
79640;SDS011;69115;49.904;14.390;2023-07-29T22:46:17;7.60;;;3.70;;
79640;SDS011;69115;49.904;14.390;2023-07-29T22:48:42;6.15;;;3.70;;
79640;SDS011;69115;49.904;14.390;2023-07-29T22:51:08;5.50;;;3.30;;
79640;SDS011;69115;49.904;14.390;2023-07-29T22:53:33;6.55;;;3.90;;
79640;SDS011;69115;49.904;14.390;2023-07-29T22:55:59;6.45;;;3.45;;
79640;SDS011;69115;49.904;14.390;2023-07-29T22:58:24;7.38;;;3.75;;
79640;SDS011;69115;49.904;14.390;2023-07-29T23:00:50;6.22;;;3.63;;
79640;SDS011;69115;49.904;14.390;2023-07-29T23:03:19;6.93;;;3.35;;
79640;SDS011;69115;49.904;14.390;2023-07-29T23:05:45;7.00;;;3.50;;
79640;SDS011;69115;49.904;14.390;2023-07-29T23:08:11;6.68;;;3.50;;
79640;SDS011;69115;49.904;14.390;2023-07-29T23:10:36;6.70;;;3.42;;
79640;SDS011;69115;49.904;14.390;2023-07-29T23:13:02;5.55;;;3.30;;
79640;SDS011;69115;49.904;14.390;2023-07-29T23:15:28;5.45;;;3.65;;
79640;SDS011;69115;49.904;14.390;2023-07-29T23:17:57;7.45;;;3.70;;
79640;SDS011;69115;49.904;14.390;2023-07-29T23:20:25;6.88;;;3.50;;
79640;SDS011;69115;49.904;14.390;2023-07-29T23:22:50;5.63;;;3.38;;
79640;SDS011;69115;49.904;14.390;2023-07-29T23:25:16;6.25;;;3.05;;
79640;SDS011;69115;49.904;14.390;2023-07-29T23:27:41;5.15;;;3.30;;
79640;SDS011;69115;49.904;14.390;2023-07-29T23:30:07;6.78;;;3.70;;
79640;SDS011;69115;49.904;14.390;2023-07-29T23:32:33;6.07;;;3.67;;
79640;SDS011;69115;49.904;14.390;2023-07-29T23:34:58;5.22;;;3.65;;
79640;SDS011;69115;49.904;14.390;2023-07-29T23:37:24;6.25;;;3.78;;
79640;SDS011;69115;49.904;14.390;2023-07-29T23:39:49;7.07;;;3.58;;
79640;SDS011;69115;49.904;14.390;2023-07-29T23:42:16;5.35;;;3.72;;
79640;SDS011;69115;49.904;14.390;2023-07-29T23:44:41;6.55;;;4.30;;
79640;SDS011;69115;49.904;14.390;2023-07-29T23:47:07;6.80;;;3.67;;
79640;SDS011;69115;49.904;14.390;2023-07-29T23:49:32;6.35;;;3.88;;
79640;SDS011;69115;49.904;14.390;2023-07-29T23:51:58;5.75;;;3.63;;
79640;SDS011;69115;49.904;14.390;2023-07-29T23:54:23;4.97;;;3.72;;
79640;SDS011;69115;49.904;14.390;2023-07-29T23:56:48;7.78;;;3.58;;
79640;SDS011;69115;49.904;14.390;2023-07-29T23:59:14;6.78;;;3.60;;
